Time;durP1;ratioP1;P1;durP2;ratioP2;P2;SDS_P1;SDS_P2;PMS_P1;PMS_P2;Temp;Humidity;BMP_temperature;BMP_pressure;BME280_temperature;BME280_humidity;BME280_pressure;Samples;Min_cycle;Max_cycle;Signal;HPM_P1;HPM_P2
2021/04/06 00:00:55;;;;;;;5.75;2.78;;;;;;;-1.88;88.79;95017.19;5028351;28;20034;-69
2021/04/06 00:03:25;;;;;;;5.88;2.10;;;;;;;-1.90;88.67;95006.97;5028037;28;20163;-69
2021/04/06 00:05:57;;;;;;;4.93;2.08;;;;;;;-2.07;88.78;94997.50;5028516;28;20030;-69
2021/04/06 00:08:26;;;;;;;2.75;1.52;;;;;;;-2.10;87.86;94990.91;5027923;28;20498;-69
2021/04/06 00:10:58;;;;;;;7.07;2.33;;;;;;;-1.99;87.31;94989.34;5028373;28;20026;-70
2021/04/06 00:13:28;;;;;;;;;;;;;;;-2.20;87.79;94996.72;5030592;28;20686;-70
2021/04/06 00:15:54;;;;;;;2.58;1.88;;;;;;;-2.33;87.90;94981.31;5031860;28;19975;-70
2021/04/06 00:18:22;;;;;;;10.57;3.08;;;;;;;-2.14;87.31;94982.00;5031892;28;20506;-70
2021/04/06 00:20:50;;;;;;;1.15;1.05;;;;;;;-2.41;86.10;94958.19;5031843;28;20040;-68
2021/04/06 00:23:18;;;;;;;3.33;2.60;;;;;;;-2.00;86.99;94972.88;5031788;28;20392;-68
2021/04/06 00:25:47;;;;;;;4.47;2.80;;;;;;;-1.90;85.10;94972.28;5034035;28;20046;-69
2021/04/06 00:28:17;;;;;;;7.00;2.60;;;;;;;-1.69;84.05;94976.09;5031753;28;20556;-69
2021/04/06 00:30:49;;;;;;;3.97;2.60;;;;;;;-1.75;84.25;94966.59;5031782;28;20043;-69
2021/04/06 00:33:27;;;;;;;5.03;1.73;;;;;;;-2.02;85.42;94974.94;5031554;28;20044;-69
2021/04/06 00:36:00;;;;;;;5.97;2.85;;;;;;;-1.73;84.87;94954.94;5031794;28;20038;-69
2021/04/06 00:38:31;;;;;;;3.88;2.03;;;;;;;-2.01;85.76;94962.69;5031198;28;20076;-69
2021/04/06 00:41:00;;;;;;;3.70;3.03;;;;;;;-1.38;83.39;94967.06;5031741;28;20067;-69
2021/04/06 00:43:34;;;;;;;6.47;2.70;;;;;;;-1.61;82.83;94950.47;5033500;28;20017;-70
2021/04/06 00:46:01;;;;;;;3.35;2.15;;;;;;;-1.80;83.16;94956.88;5031715;28;20033;-69
2021/04/06 00:48:26;;;;;;;3.33;2.50;;;;;;;-1.70;82.14;94949.25;5031180;28;20124;-70
2021/04/06 00:51:07;;;;;;;5.07;2.70;;;;;;;-1.80;82.60;94937.81;5031394;28;20117;-70
2021/04/06 00:53:55;;;;;;;5.03;2.10;;;;;;;-1.81;82.52;94954.50;5029809;28;20038;-69
2021/04/06 00:56:32;;;;;;;5.35;2.45;;;;;;;-1.68;82.70;94960.25;5031581;28;20065;-70
2021/04/06 00:59:01;;;;;;;4.05;2.20;;;;;;;-1.92;81.47;94951.69;5031044;28;20044;-70
2021/04/06 01:01:28;;;;;;;4.63;2.45;;;;;;;-1.89;82.05;94955.66;5032951;28;20096;-70
2021/04/06 01:03:58;;;;;;;3.28;2.10;;;;;;;-2.26;81.58;94935.06;5029988;28;20046;-70
2021/04/06 01:06:25;;;;;;;5.47;2.65;;;;;;;-1.95;81.01;94925.28;5031310;28;20052;-70
2021/04/06 01:08:53;;;;;;;6.70;3.00;;;;;;;-1.30;79.91;94958.84;5030791;28;20030;-70
2021/04/06 01:11:18;;;;;;;5.35;2.90;;;;;;;-0.99;78.94;94957.56;5029590;28;20022;-70
2021/04/06 01:13:45;;;;;;;8.68;3.72;;;;;;;-0.80;79.22;94945.09;5033059;28;20037;-70
2021/04/06 01:16:11;;;;;;;3.78;3.28;;;;;;;-0.58;79.81;94945.94;5029806;28;20068;-69
2021/04/06 01:18:36;;;;;;;3.60;3.30;;;;;;;-0.46;79.09;94958.94;5029462;28;20097;-69
2021/04/06 01:21:10;;;;;;;4.13;3.72;;;;;;;-0.29;79.59;94962.31;5030644;28;20116;-69
2021/04/06 01:23:36;;;;;;;9.98;3.67;;;;;;;-0.21;79.03;94960.31;5030817;28;20052;-69
2021/04/06 01:26:02;;;;;;;7.50;3.45;;;;;;;-0.37;78.75;94946.22;5030170;28;20017;-69
2021/04/06 01:28:29;;;;;;;7.60;3.38;;;;;;;-0.36;78.35;94958.25;5032574;28;20029;-68
2021/04/06 01:30:56;;;;;;;5.18;3.75;;;;;;;-0.20;78.88;94956.69;5030820;28;20034;-68
2021/04/06 01:33:23;;;;;;;6.40;3.78;;;;;;;-0.24;78.97;94943.28;5030422;28;20550;-68
2021/04/06 01:36:02;;;;;;;8.43;3.42;;;;;;;-0.28;78.58;94960.47;5030773;28;20029;-68
2021/04/06 01:38:29;;;;;;;7.28;4.25;;;;;;;-0.34;78.04;94953.59;5030321;28;20507;-68
2021/04/06 01:40:59;;;;;;;7.75;4.32;;;;;;;-0.45;78.27;94944.03;5030507;28;20471;-68
2021/04/06 01:43:28;;;;;;;6.43;3.90;;;;;;;-0.58;77.99;94953.78;5032329;28;20060;-69
2021/04/06 01:46:41;;;;;;;5.55;4.28;;;;;;;-1.00;78.11;94942.13;5030568;28;20159;-68
2021/04/06 01:48:56;;;;;;;4.13;3.28;;;;;;;-1.17;79.50;94947.34;5027165;28;20046;-68
2021/04/06 01:51:22;;;;;;;5.30;3.50;;;;;;;-1.29;81.29;94944.78;5030048;28;20030;-69
2021/04/06 01:53:48;;;;;;;7.07;3.53;;;;;;;-1.26;80.34;94948.75;5030470;28;20440;-69
2021/04/06 01:56:16;;;;;;;5.18;3.38;;;;;;;-1.40;80.87;94948.22;5029199;28;20029;-69
2021/04/06 01:58:48;;;;;;;7.78;4.03;;;;;;;-1.25;79.67;94930.22;5030618;28;20041;-69
2021/04/06 02:01:24;;;;;;;4.07;3.60;;;;;;;-1.10;79.33;94933.09;5029927;28;20069;-70
2021/04/06 02:04:00;;;;;;;6.07;4.03;;;;;;;-1.44;80.26;94926.25;5029549;28;20036;-69
2021/04/06 02:06:27;;;;;;;14.43;4.90;;;;;;;-1.02;80.35;94937.16;5029325;28;20527;-70
2021/04/06 02:08:54;;;;;;;6.32;4.57;;;;;;;-1.16;80.54;94917.59;5028630;28;20091;-70
2021/04/06 02:11:25;;;;;;;7.55;4.25;;;;;;;-1.14;79.98;94941.63;5029881;28;20033;-70
2021/04/06 02:13:51;;;;;;;6.07;4.38;;;;;;;-1.03;79.92;94940.78;5029950;28;20030;-69
2021/04/06 02:16:17;;;;;;;7.80;4.93;;;;;;;-0.96;79.68;94935.44;5031862;28;20482;-71
2021/04/06 02:18:42;;;;;;;8.18;5.00;;;;;;;-1.11;79.61;94938.56;5029439;28;20464;-71
2021/04/06 02:21:08;;;;;;;10.85;5.18;;;;;;;-0.93;79.60;94937.53;5028323;28;20044;-70
2021/04/06 02:23:42;;;;;;;8.00;5.25;;;;;;;-0.92;79.16;94931.28;5029693;28;20623;-70
2021/04/06 02:26:09;;;;;;;8.82;4.65;;;;;;;-0.95;79.29;94932.56;5029809;28;20373;-69
2021/04/06 02:28:34;;;;;;;15.82;5.32;;;;;;;-0.95;79.41;94931.78;5031384;28;20029;-70
2021/04/06 02:31:04;;;;;;;10.90;5.07;;;;;;;-1.01;79.21;94920.47;5029759;28;20056;-69
2021/04/06 02:33:32;;;;;;;6.78;5.00;;;;;;;-1.27;79.47;94919.25;5029439;28;20710;-70
2021/04/06 02:36:04;;;;;;;8.82;4.80;;;;;;;-1.10;79.38;94919.25;5029625;28;20045;-70
2021/04/06 02:38:35;;;;;;;11.23;5.35;;;;;;;-1.35;79.31;94930.84;5028395;28;20484;-70
2021/04/06 02:41:14;;;;;;;11.82;4.68;;;;;;;-1.51;80.88;94923.00;5029434;28;20104;-70
2021/04/06 02:43:41;;;;;;;8.95;5.07;;;;;;;-1.46;80.51;94920.47;5031347;28;20659;-70
2021/04/06 02:46:07;;;;;;;7.75;4.47;;;;;;;-1.40;80.08;94901.28;5029327;28;20181;-71
2021/04/06 02:48:33;;;;;;;6.90;5.03;;;;;;;-1.42;79.52;94903.34;5029179;28;20083;-70
2021/04/06 02:50:59;;;;;;;8.63;5.45;;;;;;;-1.40;79.78;94890.84;5029330;28;20048;-70
2021/04/06 02:53:25;;;;;;;6.55;4.97;;;;;;;-1.44;80.37;94881.88;5027837;28;20041;-69
2021/04/06 02:55:52;;;;;;;7.80;5.03;;;;;;;-1.34;80.05;94902.94;5029329;28;20033;-69
2021/04/06 02:58:17;;;;;;;8.57;4.93;;;;;;;-1.39;79.94;94887.19;5029558;28;20033;-69
2021/04/06 03:00:43;;;;;;;6.10;5.13;;;;;;;-1.26;78.80;94912.22;5029371;28;20065;-69
2021/04/06 03:03:22;;;;;;;11.48;5.88;;;;;;;-1.46;80.14;94904.81;5029073;28;20041;-69
2021/04/06 03:05:48;;;;;;;9.25;5.65;;;;;;;-1.41;80.26;94905.69;5029177;28;20519;-69
2021/04/06 03:08:13;;;;;;;7.80;5.78;;;;;;;-1.31;80.28;94915.53;5028826;28;20067;-70
2021/04/06 03:10:39;;;;;;;10.65;6.15;;;;;;;-1.27;80.17;94908.81;5031033;28;20104;-69
2021/04/06 03:13:10;;;;;;;6.80;5.15;;;;;;;-1.33;80.02;94897.50;5029011;28;20184;-69
2021/04/06 03:15:41;;;;;;;6.38;4.57;;;;;;;-1.18;79.52;94917.03;5029023;28;20099;-69
2021/04/06 03:18:08;;;;;;;12.95;5.03;;;;;;;-1.18;78.39;94914.41;5027194;28;20041;-69
2021/04/06 03:20:38;;;;;;;7.38;5.10;;;;;;;-1.05;78.67;94911.53;5028793;28;20041;-68
2021/04/06 03:23:07;;;;;;;6.43;4.80;;;;;;;-1.14;78.33;94921.53;5028693;28;20033;-69
2021/04/06 03:25:34;;;;;;;5.55;5.05;;;;;;;-1.28;78.74;94888.16;5030733;28;20032;-68
2021/04/06 03:28:11;;;;;;;10.82;5.15;;;;;;;-1.03;79.16;94913.88;5028499;28;20674;-69
2021/04/06 03:30:38;;;;;;;7.93;4.22;;;;;;;-1.21;78.97;94914.91;5028735;28;20083;-69
2021/04/06 03:33:06;;;;;;;7.10;3.60;;;;;;;-1.15;78.51;94909.53;5028309;28;20042;-68
2021/04/06 03:35:32;;;;;;;3.95;3.53;;;;;;;-1.42;78.53;94908.56;5028414;28;20106;-68
2021/04/06 03:37:59;;;;;;;9.43;3.42;;;;;;;-1.34;79.51;94913.38;5028416;28;20022;-69
2021/04/06 03:40:33;;;;;;;6.07;4.15;;;;;;;-1.35;78.87;94901.34;5030157;28;20426;-69
2021/04/06 03:43:20;;;;;;;5.65;3.80;;;;;;;-1.34;78.92;94908.16;5028390;28;20045;-69
2021/04/06 03:46:12;;;;;;;5.57;3.53;;;;;;;-1.86;79.77;94916.88;5026946;28;20537;-69
2021/04/06 03:48:38;;;;;;;7.82;3.42;;;;;;;-1.61;80.21;94900.91;5026131;28;20048;-68
2021/04/06 03:51:23;;;;;;;8.23;4.13;;;;;;;-1.51;79.35;94896.91;5032365;28;20037;-69
2021/04/06 03:53:48;;;;;;;6.55;4.43;;;;;;;-1.37;79.73;94906.03;5032661;28;20037;-69
2021/04/06 03:56:14;;;;;;;8.30;3.53;;;;;;;-1.68;79.29;94889.06;5032513;28;20088;-68
2021/04/06 04:01:07;;;;;;;11.98;3.60;;;;;;;-1.63;79.53;94896.97;5032310;28;20579;-68
2021/04/06 04:03:34;;;;;;;5.70;3.67;;;;;;;-2.03;80.02;94899.59;5032176;28;20083;-68
2021/04/06 04:06:00;;;;;;;7.25;3.28;;;;;;;-1.92;80.25;94898.75;5032463;28;20037;-69
2021/04/06 04:08:25;;;;;;;6.47;3.50;;;;;;;-1.73;79.13;94904.59;5031899;28;20100;-68
2021/04/06 04:10:51;;;;;;;9.27;3.83;;;;;;;-1.91;80.24;94902.94;5050556;23;20037;-64
2021/04/06 04:13:17;;;;;;;5.30;3.63;;;;;;;-1.92;79.54;94883.13;5052309;28;20115;-64
2021/04/06 04:15:42;;;;;;;9.13;4.45;;;;;;;-1.90;79.14;94894.88;5052018;28;20120;-64
2021/04/06 04:18:08;;;;;;;5.45;3.78;;;;;;;-1.81;79.80;94903.13;5051735;28;20037;-64
2021/04/06 04:20:33;;;;;;;5.80;4.05;;;;;;;-1.91;78.63;94866.44;5051822;28;20037;-63
2021/04/06 04:22:59;;;;;;;6.90;3.88;;;;;;;-1.82;78.64;94859.84;5050323;28;20043;-63
2021/04/06 04:25:24;;;;;;;9.95;4.03;;;;;;;-1.80;78.77;94852.56;5053781;28;20064;-65
2021/04/06 04:27:50;;;;;;;6.68;4.00;;;;;;;-1.73;78.64;94897.56;5051517;28;20483;-65
2021/04/06 04:30:35;;;;;;;6.55;3.97;;;;;;;-1.96;79.05;94864.53;5051745;28;20056;-63
2021/04/06 04:33:00;;;;;;;4.32;3.92;;;;;;;-1.91;78.92;94835.97;5051555;28;20037;-64
2021/04/06 04:35:25;;;;;;;11.18;4.03;;;;;;;-1.87;78.53;94884.00;5051529;28;20044;-64
2021/04/06 04:37:51;;;;;;;14.32;4.97;;;;;;;-1.66;78.87;94887.00;5049872;28;20032;-66
2021/04/06 04:40:16;;;;;;;9.57;5.32;;;;;;;-1.95;78.50;94857.50;5053519;28;20025;-65
2021/04/06 04:42:42;;;;;;;10.02;4.05;;;;;;;-1.92;78.18;94883.91;5051148;28;20045;-65
2021/04/06 04:45:08;;;;;;;6.95;4.07;;;;;;;-1.98;78.79;94863.19;5051492;28;20052;-64
2021/04/06 04:47:33;;;;;;;9.82;3.92;;;;;;;-2.24;79.21;94838.47;5051029;28;20064;-64
2021/04/06 04:49:58;;;;;;;6.47;4.03;;;;;;;-2.29;79.45;94883.44;5051185;28;20052;-65
2021/04/06 04:52:23;;;;;;;7.75;3.72;;;;;;;-2.28;79.43;94845.94;5051703;28;20459;-65
2021/04/06 04:54:49;;;;;;;10.77;4.32;;;;;;;-1.95;79.76;94878.34;5051132;28;20475;-66
2021/04/06 04:57:14;;;;;;;6.68;4.18;;;;;;;-1.71;79.23;94872.03;5049706;28;20033;-63
2021/04/06 04:59:39;;;;;;;4.10;2.70;;;;;;;-2.56;79.40;94851.88;5051172;28;20036;-66
2021/04/06 05:02:06;;;;;;;6.53;3.72;;;;;;;-2.68;80.30;94870.13;5049732;28;20029;-66
2021/04/06 05:04:31;;;;;;;10.25;4.05;;;;;;;-2.63;80.32;94874.66;5052973;28;20033;-65
2021/04/06 05:06:57;;;;;;;4.30;3.60;;;;;;;-2.69;81.01;94865.94;5050789;28;20426;-65
2021/04/06 05:09:22;;;;;;;16.13;4.50;;;;;;;-2.11;80.26;94895.50;5051042;28;20123;-66
2021/04/06 05:11:47;;;;;;;17.85;4.45;;;;;;;-2.20;79.35;94856.03;5049358;28;20418;-65
2021/04/06 05:14:13;;;;;;;6.50;4.35;;;;;;;-2.07;79.08;94880.22;5051033;28;20095;-65
2021/04/06 05:16:38;;;;;;;6.40;3.75;;;;;;;-1.79;78.19;94882.84;5052756;28;20037;-66
2021/04/06 05:19:03;;;;;;;9.05;4.15;;;;;;;-1.71;79.15;94889.50;5048946;28;20045;-66
2021/04/06 05:21:29;;;;;;;6.57;3.25;;;;;;;-1.72;77.88;94883.50;5049136;28;20086;-66
2021/04/06 05:23:54;;;;;;;5.55;3.60;;;;;;;-2.09;78.25;94830.94;5050825;28;20068;-66
2021/04/06 05:26:20;;;;;;;8.85;3.85;;;;;;;-1.43;77.47;94886.09;5050636;28;20037;-65
2021/04/06 05:28:45;;;;;;;5.43;3.30;;;;;;;-1.66;78.47;94877.34;5052376;28;20108;-66
2021/04/06 05:31:10;;;;;;;13.43;4.25;;;;;;;-1.21;77.11;94892.22;5050507;28;20529;-67
2021/04/06 05:33:36;;;;;;;6.80;3.67;;;;;;;-2.06;77.86;94832.28;5050208;28;20065;-67
2021/04/06 05:36:01;;;;;;;6.88;3.45;;;;;;;-1.58;77.27;94884.81;5050394;28;20033;-65
2021/04/06 05:38:26;;;;;;;10.00;3.20;;;;;;;-1.90;76.96;94857.59;5050111;28;20037;-63
2021/04/06 05:40:52;;;;;;;8.38;3.80;;;;;;;-1.85;78.35;94900.19;5050002;28;20151;-65
2021/04/06 05:43:18;;;;;;;5.07;3.40;;;;;;;-1.76;77.53;94869.34;5051603;28;20048;-64
2021/04/06 05:45:48;;;;;;;4.38;3.25;;;;;;;-1.61;77.46;94894.91;5050347;28;20055;-64
2021/04/06 05:48:15;;;;;;;6.32;3.95;;;;;;;-2.00;78.07;94875.66;5048799;28;20041;-66
2021/04/06 05:50:50;;;;;;;3.42;2.53;;;;;;;-2.31;78.95;94862.03;5050325;28;20060;-67
2021/04/06 05:53:15;;;;;;;5.68;2.45;;;;;;;-2.49;78.67;94855.16;5049947;28;20044;-64
2021/04/06 05:55:41;;;;;;;4.07;2.40;;;;;;;-2.67;78.63;94817.03;5052262;28;20032;-66
2021/04/06 05:58:06;;;;;;;3.70;2.28;;;;;;;-2.28;78.87;94890.25;5050017;28;20052;-68
2021/04/06 06:00:33;;;;;;;3.20;2.55;;;;;;;-2.40;78.60;94866.81;5050222;28;20044;-66
2021/04/06 06:03:00;;;;;;;9.32;3.13;;;;;;;-2.32;78.72;94873.47;5048358;28;20119;-67
2021/04/06 06:05:25;;;;;;;4.53;2.67;;;;;;;-2.25;78.94;94865.53;5048767;28;20037;-66
2021/04/06 06:07:51;;;;;;;8.32;2.97;;;;;;;-1.91;77.41;94893.31;5036159;28;20031;-65
2021/04/06 06:10:27;;;;;;;6.35;2.28;;;;;;;-1.89;77.79;94916.56;5028912;28;20025;-68
2021/04/06 06:12:54;;;;;;;4.13;2.38;;;;;;;-2.08;79.10;94900.28;5020587;28;20534;-67
2021/04/06 06:15:19;;;;;;;10.82;2.83;;;;;;;-2.21;78.06;94888.28;5028782;28;20395;-67
2021/04/06 06:18:17;;;;;;;9.35;2.97;;;;;;;-1.69;77.39;94903.91;5029569;28;20030;-67
2021/04/06 06:20:52;;;;;;;1.83;1.67;;;;;;;-1.87;77.94;94912.69;4985144;28;20046;-67
2021/04/06 06:23:22;;;;;;;6.28;2.70;;;;;;;-1.81;78.61;94920.59;5029501;28;20034;-68
2021/04/06 06:26:02;;;;;;;4.70;3.00;;;;;;;-2.00;77.86;94917.34;5030337;28;20048;-67
2021/04/06 06:28:28;;;;;;;3.95;2.33;;;;;;;-1.61;77.83;94890.47;5029903;28;20518;-67
2021/04/06 06:30:54;;;;;;;5.00;3.08;;;;;;;-1.69;77.96;94890.88;5029855;28;20041;-67
2021/04/06 06:33:30;;;;;;;3.08;1.95;;;;;;;-1.71;77.81;94915.59;5029424;28;20080;-66
2021/04/06 06:36:01;;;;;;;7.72;3.08;;;;;;;-1.49;78.40;94903.47;5029476;28;20499;-67
2021/04/06 06:38:29;;;;;;;2.40;1.52;;;;;;;-1.84;78.31;94907.00;5028740;28;20033;-65
2021/04/06 06:41:09;;;;;;;8.48;2.45;;;;;;;-1.46;77.14;94903.00;5029256;28;20060;-67
2021/04/06 06:43:35;;;;;;;7.90;2.72;;;;;;;-1.40;77.20;94898.66;5031029;28;20025;-68
2021/04/06 06:46:01;;;;;;;5.80;2.00;;;;;;;-1.70;76.95;94886.66;5029138;28;20045;-68
2021/04/06 06:48:26;;;;;;;6.05;2.45;;;;;;;-1.51;77.19;94895.09;5027392;28;20107;-68
2021/04/06 06:50:52;;;;;;;4.90;3.17;;;;;;;-0.97;75.11;94894.66;5027538;28;20036;-67
2021/04/06 06:53:38;;;;;;;5.70;3.17;;;;;;;-1.23;77.05;94894.25;5027368;28;20040;-66
2021/04/06 06:56:08;;;;;;;6.68;2.85;;;;;;;-0.87;75.08;94885.19;5029249;28;20529;-65
2021/04/06 06:58:40;;;;;;;2.80;1.92;;;;;;;-1.50;74.44;94828.06;5030627;28;20113;-66
2021/04/06 07:01:06;;;;;;;2.15;1.60;;;;;;;-1.49;73.75;94840.84;5029159;28;20041;-66
2021/04/06 07:03:31;;;;;;;6.40;2.15;;;;;;;-1.32;74.30;94866.97;5028749;28;20522;-66
2021/04/06 07:05:57;;;;;;;9.60;2.65;;;;;;;-1.06;73.58;94886.44;5028877;28;20117;-66
2021/04/06 07:08:34;;;;;;;3.45;2.55;;;;;;;-1.06;70.58;94889.84;5028512;28;20061;-65
2021/04/06 07:11:02;;;;;;;3.38;2.22;;;;;;;-0.63;72.18;94883.16;5028455;28;20029;-66
2021/04/06 07:13:33;;;;;;;2.88;1.90;;;;;;;-0.39;70.23;94885.59;5030433;28;20026;-66
2021/04/06 07:16:00;;;;;;;10.45;2.35;;;;;;;0.25;69.11;94878.78;5028721;28;20115;-65
2021/04/06 07:18:27;;;;;;;4.97;2.25;;;;;;;-0.01;67.92;94867.25;5028359;28;20033;-66
2021/04/06 07:21:01;;;;;;;4.25;1.60;;;;;;;-0.45;67.93;94887.34;5028299;28;20026;-65
2021/04/06 07:23:48;;;;;;;2.28;1.40;;;;;;;-0.25;68.83;94876.38;5028183;28;20036;-66
2021/04/06 07:26:16;;;;;;;3.75;1.50;;;;;;;-0.60;68.12;94837.50;5028593;28;20068;-65
2021/04/06 07:28:42;;;;;;;6.15;1.90;;;;;;;-0.03;68.89;94887.63;5030305;28;20383;-66
2021/04/06 07:31:11;;;;;;;3.65;1.70;;;;;;;-0.25;67.24;94888.66;5028473;28;20083;-65
2021/04/06 07:33:41;;;;;;;5.63;1.70;;;;;;;-0.48;68.27;94900.09;5027149;28;20110;-67
2021/04/06 07:36:10;;;;;;;3.63;1.63;;;;;;;-0.15;67.29;94879.13;5028493;28;20052;-65
2021/04/06 07:38:40;;;;;;;5.05;1.63;;;;;;;-0.10;67.49;94894.88;5026873;28;20515;-68
2021/04/06 07:41:06;;;;;;;2.88;1.77;;;;;;;-0.19;66.79;94898.94;5027813;28;20057;-66
2021/04/06 07:43:34;;;;;;;3.45;1.83;;;;;;;0.09;68.76;94891.94;5031302;28;20601;-65
2021/04/06 07:45:59;;;;;;;3.72;1.80;;;;;;;0.02;66.65;94859.97;5029503;28;20510;-67
2021/04/06 07:48:50;;;;;;;2.95;1.70;;;;;;;-0.33;67.44;94905.53;5029132;28;20045;-66
2021/04/06 07:51:22;;;;;;;4.45;2.15;;;;;;;-0.01;68.09;94892.59;5028624;28;20136;-65
2021/04/06 07:54:10;;;;;;;5.18;2.10;;;;;;;-0.45;68.43;94891.78;5029503;28;20042;-66
2021/04/06 07:56:45;;;;;;;4.32;2.13;;;;;;;-0.03;68.56;94889.44;5029229;28;20033;-67
2021/04/06 07:59:20;;;;;;;4.53;1.90;;;;;;;-0.40;68.49;94913.53;5028176;28;20116;-66
2021/04/06 08:02:05;;;;;;;4.70;2.20;;;;;;;-0.33;67.88;94889.84;5030886;28;20136;-66
2021/04/06 08:04:39;;;;;;;3.38;2.05;;;;;;;0.32;66.38;94896.91;5029694;28;20064;-67
2021/04/06 08:07:20;;;;;;;7.88;2.40;;;;;;;0.02;66.41;94891.34;5029242;28;20079;-67
2021/04/06 08:09:53;;;;;;;3.38;1.90;;;;;;;-0.09;68.33;94901.66;5029500;28;20137;-67
2021/04/06 08:12:26;;;;;;;2.85;2.38;;;;;;;0.05;66.61;94903.91;5029109;28;20161;-68
2021/04/06 08:15:11;;;;;;;3.78;2.17;;;;;;;-0.12;68.19;94903.97;5029355;28;20033;-69
2021/04/06 08:17:49;;;;;;;6.07;1.98;;;;;;;-0.30;70.12;94905.06;5029187;28;20052;-65
2021/04/06 08:20:14;;;;;;;3.72;1.95;;;;;;;0.10;68.15;94906.59;5028786;28;20075;-68
2021/04/06 08:22:57;;;;;;;4.95;2.13;;;;;;;-0.33;69.09;94900.31;5030745;28;20057;-65
2021/04/06 08:25:22;;;;;;;5.88;2.00;;;;;;;-0.51;69.69;94924.91;5028347;28;20137;-65
2021/04/06 08:27:55;;;;;;;4.95;2.22;;;;;;;-0.35;69.12;94918.06;5028933;28;20117;-66
2021/04/06 08:30:38;;;;;;;3.38;1.85;;;;;;;-0.77;70.80;94907.25;5029031;28;20041;-67
2021/04/06 08:33:04;;;;;;;7.35;2.20;;;;;;;-0.65;71.00;94926.25;5028941;28;20123;-65
2021/04/06 08:38:22;;;;;;;3.63;2.08;;;;;;;-0.46;69.75;94924.97;5032576;28;20034;-64
2021/04/06 08:41:05;;;;;;;7.60;2.47;;;;;;;0.47;69.07;94912.78;5034456;28;20477;-66
2021/04/06 08:43:34;;;;;;;6.80;2.40;;;;;;;-0.11;67.63;94893.25;5026547;28;20045;-66
2021/04/06 08:46:22;;;;;;;6.32;1.83;;;;;;;0.33;66.69;94929.09;5031393;28;20041;-73
2021/04/06 08:48:50;;;;;;;10.60;2.05;;;;;;;0.11;67.32;94910.81;5032699;28;20049;-70
2021/04/06 08:51:25;;;;;;;3.40;2.08;;;;;;;0.33;66.41;94890.63;5031830;28;20037;-66
2021/04/06 08:54:21;;;;;;;8.00;2.08;;;;;;;0.51;65.96;94905.19;5032499;28;20042;-65
2021/04/06 08:57:02;;;;;;;5.22;2.38;;;;;;;0.42;66.24;94876.09;5023063;28;20060;-63
2021/04/06 08:59:33;;;;;;;5.88;2.50;;;;;;;1.08;65.19;94902.09;5031061;28;20100;-66
2021/04/06 09:02:04;;;;;;;5.80;2.35;;;;;;;1.29;64.40;94909.06;5031958;28;20033;-66
2021/04/06 09:04:35;;;;;;;4.20;1.98;;;;;;;0.92;64.38;94880.22;5032865;28;20029;-66
2021/04/06 09:07:01;;;;;;;4.72;1.60;;;;;;;0.56;66.00;94904.47;5032108;28;20404;-65
2021/04/06 09:09:31;;;;;;;6.55;2.33;;;;;;;0.63;66.32;94877.06;5032142;28;20029;-67
2021/04/06 09:11:58;;;;;;;3.30;1.90;;;;;;;0.85;65.36;94897.16;5031981;28;20056;-65
2021/04/06 09:14:26;;;;;;;4.78;1.70;;;;;;;0.38;65.18;94900.38;5032276;28;20041;-69
2021/04/06 09:16:54;;;;;;;4.10;2.10;;;;;;;0.50;67.02;94904.41;5031531;28;20038;-68
2021/04/06 09:19:21;;;;;;;10.25;2.78;;;;;;;0.42;65.65;94891.78;5032557;28;20471;-71
2021/04/06 09:21:53;;;;;;;3.63;2.55;;;;;;;1.15;64.90;94896.63;5031133;28;20050;-74
2021/04/06 09:24:19;;;;;;;5.65;2.63;;;;;;;0.80;63.89;94881.41;5032077;28;20491;-70
2021/04/06 09:26:46;;;;;;;1.70;1.55;;;;;;;0.84;64.60;94883.28;5031262;28;20044;-70
2021/04/06 09:29:18;;;;;;;7.57;2.25;;;;;;;0.79;64.52;94901.56;5032006;28;20037;-64
2021/04/06 09:31:56;;;;;;;5.13;1.80;;;;;;;1.16;63.36;94890.34;5032293;28;20064;-68
2021/04/06 09:34:24;;;;;;;2.80;1.08;;;;;;;0.36;63.75;94918.94;5032024;28;20030;-69
2021/04/06 09:37:03;;;;;;;3.78;1.85;;;;;;;0.57;64.22;94869.44;5030044;28;20041;-70
2021/04/06 09:39:30;;;;;;;11.73;3.20;;;;;;;2.08;61.89;94899.53;5031852;28;20124;-70
2021/04/06 09:41:57;;;;;;;5.85;2.10;;;;;;;2.17;61.27;94897.22;5030122;28;20034;-70
2021/04/06 09:44:26;;;;;;;2.67;1.40;;;;;;;0.88;63.41;94900.09;5031667;28;20083;-72
2021/04/06 09:46:54;;;;;;;3.35;1.42;;;;;;;0.61;64.58;94886.19;5030763;28;20025;-73
2021/04/06 09:49:20;;;;;;;2.67;1.75;;;;;;;0.66;63.66;94892.28;5033269;28;20030;-71
2021/04/06 09:51:51;;;;;;;4.90;2.00;;;;;;;0.84;64.21;94893.75;5030869;28;20491;-71
2021/04/06 09:54:29;;;;;;;9.75;2.15;;;;;;;1.39;61.96;94887.38;5031415;28;20122;-71
2021/04/06 09:56:57;;;;;;;4.47;1.90;;;;;;;1.81;60.47;94834.13;5031211;28;20137;-72
2021/04/06 09:59:22;;;;;;;3.15;2.17;;;;;;;2.95;58.65;94874.28;5031096;28;20053;-72
2021/04/06 10:01:57;;;;;;;4.22;2.25;;;;;;;2.70;58.81;94869.00;5033256;28;20037;-71
2021/04/06 10:04:39;;;;;;;5.57;2.38;;;;;;;2.03;60.88;94881.16;5031709;28;20040;-70
2021/04/06 10:07:16;;;;;;;4.97;1.90;;;;;;;1.67;60.27;94888.84;5029249;28;20038;-69
2021/04/06 10:09:46;;;;;;;3.70;1.75;;;;;;;2.78;57.16;94869.28;5031021;28;20034;-71
2021/04/06 10:12:13;;;;;;;3.17;1.85;;;;;;;2.28;59.73;94869.97;5029322;28;20491;-70
2021/04/06 10:14:40;;;;;;;7.82;2.65;;;;;;;2.53;60.90;94856.91;5030915;28;20502;-70
2021/04/06 10:17:09;;;;;;;8.55;2.42;;;;;;;2.61;59.38;94847.75;5042727;23;20053;-69
2021/04/06 10:19:37;;;;;;;5.88;2.30;;;;;;;2.82;59.00;94859.06;5015332;28;20014;-69
2021/04/06 10:22:09;;;;;;;6.03;2.53;;;;;;;2.88;58.97;94860.63;5009093;28;20042;-69
2021/04/06 10:24:40;;;;;;;4.28;1.80;;;;;;;3.22;56.33;94854.84;5009675;28;20065;-70
2021/04/06 10:27:22;;;;;;;2.60;1.55;;;;;;;2.27;58.43;94857.91;5010697;28;20081;-71
2021/04/06 10:29:59;;;;;;;5.00;2.05;;;;;;;2.02;59.18;94869.09;5011027;28;20472;-71
2021/04/06 10:32:40;;;;;;;4.40;1.70;;;;;;;2.09;58.90;94859.13;5010835;28;20484;-71
2021/04/06 10:35:13;;;;;;;2.83;1.80;;;;;;;2.24;59.49;94858.41;5026132;28;20068;-69
2021/04/06 10:37:57;;;;;;;5.45;2.13;;;;;;;2.08;60.23;94837.38;5012454;28;20464;-69
2021/04/06 10:40:37;;;;;;;6.00;2.42;;;;;;;2.75;59.33;94848.78;5011304;28;20070;-70
2021/04/06 10:43:19;;;;;;;8.68;2.30;;;;;;;2.70;60.39;94834.88;5016657;28;20192;-71
2021/04/06 10:45:47;;;;;;;4.95;2.40;;;;;;;3.02;57.57;94835.41;5029312;28;20145;-71
2021/04/06 10:48:19;;;;;;;5.97;2.30;;;;;;;2.32;59.97;94842.16;5030141;28;20034;-71
2021/04/06 10:50:51;;;;;;;4.82;2.30;;;;;;;2.39;60.13;94819.06;5030005;28;20044;-71
2021/04/06 10:53:24;;;;;;;5.40;2.05;;;;;;;2.51;59.70;94827.50;5030118;28;20039;-70
2021/04/06 10:56:09;;;;;;;4.78;2.28;;;;;;;1.91;59.99;94828.91;5032004;28;20026;-71
2021/04/06 10:58:39;;;;;;;3.92;2.10;;;;;;;2.11;62.06;94830.03;5030063;28;20040;-71
2021/04/06 11:01:10;;;;;;;3.90;1.70;;;;;;;1.82;59.95;94809.47;5030074;28;20053;-71
2021/04/06 11:03:46;;;;;;;5.72;2.15;;;;;;;1.69;60.89;94818.59;5029793;28;20057;-71
2021/04/06 11:06:30;;;;;;;3.95;2.30;;;;;;;2.28;60.33;94813.03;5045255;28;20037;-69
2021/04/06 11:08:57;;;;;;;5.50;1.98;;;;;;;2.66;60.60;94804.91;5029543;28;20026;-73
2021/04/06 11:11:30;;;;;;;4.28;1.85;;;;;;;2.23;59.37;94812.22;5029642;28;20399;-70
2021/04/06 11:14:05;;;;;;;4.28;3.05;;;;;;;2.36;59.42;94787.31;5028988;28;20495;-78
2021/04/06 11:16:31;;;;;;;4.68;2.25;;;;;;;3.17;57.41;94797.81;5031626;28;20082;-72
2021/04/06 11:18:59;;;;;;;4.47;1.80;;;;;;;2.88;58.54;94794.19;5029503;28;20033;-71
2021/04/06 11:21:25;;;;;;;3.83;1.83;;;;;;;2.51;58.04;94777.63;5027603;28;20472;-68
2021/04/06 11:23:51;;;;;;;3.58;1.90;;;;;;;2.66;58.62;94781.28;5028169;28;20052;-69
2021/04/06 11:26:17;;;;;;;6.30;2.17;;;;;;;3.86;57.12;94767.38;5029492;28;20163;-70
2021/04/06 11:28:42;;;;;;;2.88;2.28;;;;;;;2.88;58.19;94770.53;5030083;28;20560;-68
2021/04/06 11:31:08;;;;;;;8.98;2.25;;;;;;;3.80;57.15;94763.97;5028486;28;20042;-68
2021/04/06 11:33:34;;;;;;;3.40;1.95;;;;;;;3.21;56.73;94772.56;5029397;28;20484;-69
2021/04/06 11:35:59;;;;;;;4.78;1.92;;;;;;;2.76;59.89;94765.53;5029702;28;20120;-69
2021/04/06 11:38:24;;;;;;;3.22;2.20;;;;;;;3.12;57.81;94737.38;5029322;28;20041;-69
2021/04/06 11:40:50;;;;;;;5.25;2.20;;;;;;;4.00;56.60;94744.69;5030640;28;20061;-63
2021/04/06 11:43:15;;;;;;;5.10;2.67;;;;;;;4.75;54.62;94751.53;5029118;28;20033;-70
2021/04/06 11:45:41;;;;;;;5.72;1.83;;;;;;;4.27;54.58;94730.31;5028303;28;20043;-70
2021/04/06 11:48:06;;;;;;;5.28;1.95;;;;;;;3.57;55.79;94723.28;5029152;28;20118;-69
2021/04/06 11:50:32;;;;;;;3.88;1.70;;;;;;;3.12;55.43;94746.06;5027634;28;20173;-71
2021/04/06 11:52:57;;;;;;;6.32;1.83;;;;;;;3.16;56.94;94721.88;5029289;28;20025;-70
2021/04/06 11:55:22;;;;;;;5.30;2.15;;;;;;;4.67;54.50;94722.09;5030085;28;20018;-71